sim
Sign-in with your pilot id or email,
or register
Callsign
Passwort

Schedule Details

Flight Number: DLH2305 (1)
Departure: Amsterdam Schiphol Airport (EHAM) at 13:35
Arrival: Munich Airport (EDDM) at 14:55
Route: Lufthansa Passenger Schedule. Enter filed route here before submitting Pirep.

Weather Information
Getting current METAR information for EHAM 181255Z 07014KT 030V110 CAVOK 20/08 Q1024 NOSIG
Getting current METAR information for EDDM 181250Z 07010KT 020V120 CAVOK 19/09 Q1024 NOSIG

Schedule Frequency

Route Map